DG2GBZ-3 Weather Reports


Display with metric or nautical units.
time (UTC)temp
F
wind
direction
speed
MPH
gust
MPH
rain 1hr
in
rain 24hr
in
rain mn
in
humidity
%
barometer
mb
20260505223537 47 0.0 0.0 0.00 0.00 0.00 1011.5
20260505222536 47 0.0 0.0 0.00 0.00 0.00 1011.6
20260505221536 48 0.0 0.0 0.00 0.00 0.00 1011.6
20260505220536 49 0.0 0.0 0.00 0.00 0.00 1011.6
20260505215535 49 0.0 0.0 0.00 0.00 0.00 1011.6
20260505214535 49 0.0 0.0 0.00 0.00 0.00 1011.6
20260505213535 49 0.0 0.0 0.00 0.00 0.00 1011.8
20260505212534 49 0.0 0.0 0.00 0.00 0.00 1011.7
20260505211534 50 0.0 0.0 0.00 0.00 0.00 1011.9
20260505210534 50 0.0 0.0 0.00 0.00 0.00 1011.7
20260505205534 50 0.0 0.0 0.00 0.00 0.00 1011.7
20260505204533 50 0.0 0.0 0.00 0.00 0.00 1011.5
20260505203533 50 0.0 0.0 0.00 0.00 0.00 1011.3
20260505202533 51 0.0 0.0 0.00 0.00 0.00 1011.3
20260505201532 51 0.0 0.0 0.00 0.00 0.00 1011.3
20260505200532 51 0.0 0.0 0.00 0.00 0.00 1011.3
20260505195532 52 0.0 0.0 0.00 0.00 0.00 1011.1
20260505194531 52 0.0 0.0 0.00 0.00 0.00 1010.9
20260505193531 53 0.0 0.0 0.00 0.00 0.00 1010.7
20260505192531 52 0.0 0.0 0.00 0.00 0.00 1010.7
20260505191530 53 0.0 0.0 0.00 0.00 0.00 1010.8
20260505190530 54 0.0 0.0 0.00 0.00 0.00 1010.9
20260505185530 54 0.0 0.0 0.00 0.00 0.00 1010.9
20260505184529 54 0.0 0.0 0.00 0.00 0.00 1010.8
20260505183529 54 0.0 0.0 0.00 0.00 0.00 1010.6
20260505182529 55 0.0 0.0 0.00 0.00 0.00 1010.6
20260505181528 55 0.0 0.0 0.00 0.00 0.00 1010.5
20260505180528 56 0.0 0.0 0.00 0.00 0.00 1010.4
20260505175528 56 0.0 0.0 0.00 0.00 0.00 1010.5
20260505174528 56 0.0 0.0 0.00 0.00 0.00 1010.5
20260505173527 56 0.0 0.0 0.00 0.00 0.00 1010.6
20260505172527 56 0.0 0.0 0.00 0.00 0.00 1010.6
20260505171527 57 0.0 0.0 0.00 0.00 0.00 1010.7
20260505170526 59 0.0 0.0 0.00 0.00 0.00 1010.6
20260505165526 59 0.0 0.0 0.00 0.00 0.00 1010.6
20260505164526 61 0.0 0.0 0.00 0.00 0.00 1010.5
20260505163525 62 0.0 0.0 0.00 0.00 0.00 1010.4
20260505162525 63 0.0 0.0 0.00 0.00 0.00 1010.5
20260505161525 66 0.0 0.0 0.00 0.00 0.00 1010.5
20260505160524 69 0.0 0.0 0.00 0.00 0.00 1010.4
20260505152523 70 0.0 0.0 0.00 0.00 0.00 1009.6
20260505151523 70 0.0 0.0 0.00 0.00 0.00 1009.6
20260505150845 71 0.0 0.0 0.00 0.00 0.00 1009.6
20260505124838 62 0.0 0.0 0.00 0.00 0.00 1011.0
20260505123837 62 0.0 0.0 0.00 0.00 0.00 1011.1
20260505122837 62 0.0 0.0 0.00 0.00 0.00 1011.2
20260505121837 63 0.0 0.0 0.00 0.00 0.00 1011.2
20260505120837 63 0.0 0.0 0.00 0.00 0.00 1011.3
20260505115837 64 0.0 0.0 0.00 0.00 0.00 1011.3
20260505114836 63 0.0 0.0 0.00 0.00 0.00 1011.2
20260505113836 63 0.0 0.0 0.00 0.00 0.00 1011.2
20260505112835 63 0.0 0.0 0.00 0.00 0.00 1011.3
20260505111835 63 0.0 0.0 0.00 0.00 0.00 1011.3
20260505110835 64 0.0 0.0 0.00 0.00 0.00 1011.3
20260505101833 67 0.0 0.0 0.00 0.00 0.00 1011.3
20260505100833 68 0.0 0.0 0.00 0.00 0.00 1011.3
20260505095833 69 0.0 0.0 0.00 0.00 0.00 1011.2
20260505094832 69 0.0 0.0 0.00 0.00 0.00 1011.2
20260505093832 70 0.0 0.0 0.00 0.00 0.00 1011.2
20260505092832 71 0.0 0.0 0.00 0.00 0.00 1011.2
20260505091831 71 0.0 0.0 0.00 0.00 0.00 1011.3
20260505090831 69 0.0 0.0 0.00 0.00 0.00 1011.3
20260505085831 68 0.0 0.0 0.00 0.00 0.00 1011.3
20260505084830 68 0.0 0.0 0.00 0.00 0.00 1011.3
20260505083830 68 0.0 0.0 0.00 0.00 0.00 1011.3
20260505082830 67 0.0 0.0 0.00 0.00 0.00 1011.3
20260505081829 66 0.0 0.0 0.00 0.00 0.00 1011.3
20260505080829 66 0.0 0.0 0.00 0.00 0.00 1011.5
20260505075829 63 0.0 0.0 0.00 0.00 0.00 1011.5
20260505074828 63 0.0 0.0 0.00 0.00 0.00 1011.6
20260505073828 62 0.0 0.0 0.00 0.00 0.00 1011.7
20260505072828 61 0.0 0.0 0.00 0.00 0.00 1011.9
20260505071827 60 0.0 0.0 0.00 0.00 0.00 1012.0
20260505070827 59 0.0 0.0 0.00 0.00 0.00 1012.0
20260505065827 58 0.0 0.0 0.00 0.00 0.00 1012.1
20260505064826 58 0.0 0.0 0.00 0.00 0.00 1012.1
20260505063826 58 0.0 0.0 0.00 0.00 0.00 1012.1
20260505062826 57 0.0 0.0 0.00 0.00 0.00 1012.2
20260505061826 57 0.0 0.0 0.00 0.00 0.00 1012.3
20260505060825 57 0.0 0.0 0.00 0.00 0.00 1012.3
20260505055825 57 0.0 0.0 0.00 0.00 0.00 1012.3
20260505054824 56 0.0 0.0 0.00 0.00 0.00 1012.4
20260505053824 55 0.0 0.0 0.00 0.00 0.00 1012.3
20260505052825 53 0.0 0.0 0.00 0.00 0.00 1012.2
20260505051823 53 0.0 0.0 0.00 0.00 0.00 1012.1
20260505050822 52 0.0 0.0 0.00 0.00 0.00 1012.3
20260505040819 51 0.0 0.0 0.00 0.00 0.00 1012.5
20260505035819 52 0.0 0.0 0.00 0.00 0.00 1012.6
20260505034819 52 0.0 0.0 0.00 0.00 0.00 1012.7
20260505033818 52 0.0 0.0 0.00 0.00 0.00 1012.8
20260505032818 52 0.0 0.0 0.00 0.00 0.00 1012.9
20260505031817 52 0.0 0.0 0.00 0.00 0.00 1012.8
20260505030817 52 0.0 0.0 0.00 0.00 0.00 1012.8
20260505025816 52 0.0 0.0 0.00 0.00 0.00 1012.9
20260505024816 53 0.0 0.0 0.00 0.00 0.00 1013.0
20260505023815 53 0.0 0.0 0.00 0.00 0.00 1013.0
20260505022815 53 0.0 0.0 0.00 0.00 0.00 1013.1
20260505021814 53 0.0 0.0 0.00 0.00 0.00 1013.3
20260505020814 54 0.0 0.0 0.00 0.00 0.00 1013.3
20260505015813 54 0.0 0.0 0.00 0.00 0.00 1013.4
20260505014813 54 0.0 0.0 0.00 0.00 0.00 1013.5
20260505011811 55 0.0 0.0 0.00 0.00 0.00 1013.8
20260505010811 56 0.0 0.0 0.00 0.00 0.00 1013.9
20260505005810 56 0.0 0.0 0.00 0.00 0.00 1014.0
20260505004810 56 0.0 0.0 0.00 0.00 0.00 1014.2
20260505003809 56 0.0 0.0 0.00 0.00 0.00 1014.5
20260505002809 56 0.0 0.0 0.00 0.00 0.00 1014.5
20260505001808 56 0.0 0.0 0.00 0.00 0.00 1014.6
20260505000808 57 0.0 0.0 0.00 0.00 0.00 1014.7
20260504235807 57 0.0 0.0 0.00 0.00 0.00 1014.9
20260504234807 57 0.0 0.0 0.00 0.00 0.00 1014.8
20260504233806 56 0.0 0.0 0.00 0.00 0.00 1014.8
20260504232806 57 0.0 0.0 0.00 0.00 0.00 1014.8
20260504231805 57 0.0 0.0 0.00 0.00 0.00 1015.0
20260504230805 57 0.0 0.0 0.00 0.00 0.00 1015.1
20260504225804 58 0.0 0.0 0.00 0.00 0.00 1015.0
20260504224804 58 0.0 0.0 0.00 0.00 0.00 1015.0